This is the latest recevied weather packets stored in our database for station/object OK1FCB-1. If no packets are shown the sender has not sent any weather packets the latest 10 day(s).
| Time | Temp. | Humidity | Pressure | Rain* | Wind** | Luminosity | Snow |
|---|---|---|---|---|---|---|---|
| 1787955973 | 18.89° C | 80% | 1017.2 hPa | - | - | - | - |
| 1787955076 | 18.89° C | 80% | 1016.7 hPa | - | - | - | - |
| 1787954178 | 18.89° C | 79% | 1016.7 hPa | - | - | - | - |
| 1787952382 | 18.89° C | 79% | 1016.2 hPa | - | - | - | - |
| 1787950587 | 18.89° C | 78% | 1016.8 hPa | - | - | - | - |
| 1787948792 | 18.89° C | 76% | 1017.8 hPa | - | - | - | - |
| 1787945201 | 20° C | 76% | 1019.1 hPa | - | - | - | - |
| 1787938026 | 26.67° C | 46% | 1015.4 hPa | - | - | - | - |
| 1787936232 | 28.33° C | 43% | 1015.6 hPa | - | - | - | - |
| 1787934439 | 30.56° C | 39% | 1015.4 hPa | - | - | - | - |
| 1787930852 | 32.78° C | 36% | 1015.9 hPa | - | - | - | - |
| 1787929955 | 33.89° C | 33% | 1016.2 hPa | - | - | - | - |
| 1787916491 | 36.67° C | 33% | 1016.7 hPa | - | - | - | - |
| 1787915593 | 36.67° C | 33% | 1016.7 hPa | - | - | - | - |
| 1787914693 | 36.11° C | 34% | 1016.6 hPa | - | - | - | - |
| 1787912895 | 35° C | 34% | 1017 hPa | - | - | - | - |
| 1787910199 | 33.89° C | 36% | 1018.3 hPa | - | - | - | - |
| 1787909300 | 32.78° C | 37% | 1018.5 hPa | - | - | - | - |
| 1787907500 | 30.56° C | 39% | 1018.6 hPa | - | - | - | - |
| 1787904805 | 28.33° C | 43% | 1018.9 hPa | - | - | - | - |
| 1787895817 | 20.56° C | 58% | 1019.4 hPa | - | - | - | - |
| 1787894020 | 18.89° C | 63% | 1019.5 hPa | - | - | - | - |
| 1787893120 | 17.22° C | 67% | 1019.8 hPa | - | - | - | - |
| 1787890425 | 15° C | 71% | 1020 hPa | - | - | - | - |
| 1787889527 | 15° C | 70% | 1020 hPa | - | - | - | - |
* Rain since midnight (hover to see other rain measurements)
** Current wind speed in m/s (hover to see current wind gust speed)